Time;durP1;ratioP1;P1;durP2;ratioP2;P2;SDS_P1;SDS_P2;PMS_P1;PMS_P2;Temp;Humidity;BMP_temperature;BMP_pressure;BME280_temperature;BME280_humidity;BME280_pressure;Samples;Min_cycle;Max_cycle;Signal;HPM_P1;HPM_P2
2023/11/15 00:00:10;;;;;;;1.00;0.60;;;10.40;85.00;;;9.85;84.06;97029.84;4950518;28;20463;-78
2023/11/15 00:02:38;;;;;;;4.87;1.10;;;10.50;84.80;;;9.89;83.15;97036.41;4951832;29;20465;-80
2023/11/15 00:05:06;;;;;;;0.83;0.50;;;10.60;84.80;;;9.91;82.48;97039.69;4948448;28;20466;-78
2023/11/15 00:07:35;;;;;;;0.70;0.43;;;10.60;84.10;;;9.91;81.90;97015.41;4947630;28;20509;-77
2023/11/15 00:10:03;;;;;;;0.90;0.60;;;10.60;83.80;;;10.03;82.27;97041.56;4949446;29;20473;-77
2023/11/15 00:12:32;;;;;;;4.27;0.87;;;10.70;83.90;;;10.01;81.60;97038.28;4950084;28;20917;-76
2023/11/15 00:14:59;;;;;;;1.43;0.77;;;10.70;83.50;;;9.87;82.17;97030.44;4950370;29;20462;-76
2023/11/15 00:17:30;;;;;;;2.00;0.70;;;10.60;83.70;;;9.96;81.19;97024.69;4945878;28;20466;-76
2023/11/15 00:19:59;;;;;;;1.13;0.53;;;10.60;83.50;;;9.84;80.93;97030.91;4950945;28;20463;-76
2023/11/15 00:22:26;;;;;;;2.10;0.80;;;10.60;83.50;;;9.99;79.82;97030.41;4941442;29;20459;-76
2023/11/15 00:24:53;;;;;;;0.50;0.30;;;10.70;82.80;;;10.05;78.84;97045.69;4949004;28;20521;-76
2023/11/15 00:27:20;;;;;;;3.33;0.60;;;10.60;82.40;;;10.08;77.47;97041.66;4942585;28;20557;-77
2023/11/15 00:29:49;;;;;;;1.90;0.60;;;10.70;81.80;;;10.09;77.70;97051.44;4949630;28;20838;-76
2023/11/15 00:32:19;;;;;;;2.40;0.50;;;10.70;81.80;;;10.02;77.30;97056.13;4952060;28;20457;-77
2023/11/15 00:34:48;;;;;;;1.47;0.60;;;10.70;81.40;;;10.06;77.32;97051.88;4950281;28;20466;-75
2023/11/15 00:37:15;;;;;;;2.50;0.60;;;10.70;81.10;;;10.08;76.92;97049.75;4955984;28;20761;-76
2023/11/15 00:39:42;;;;;;;0.90;0.60;;;10.70;81.10;;;10.06;76.53;97062.69;4952676;28;20474;-79
2023/11/15 00:42:11;;;;;;;0.40;0.40;;;10.70;80.60;;;10.09;76.20;97088.38;4948472;28;20476;-78
2023/11/15 00:44:39;;;;;;;1.17;0.50;;;10.70;80.60;;;10.09;76.99;97081.13;4948407;28;20538;-78
2023/11/15 00:47:06;;;;;;;1.30;0.67;;;10.70;80.60;;;10.06;76.28;97085.09;4949058;28;20559;-79
2023/11/15 00:49:35;;;;;;;1.40;0.60;;;10.70;80.70;;;9.97;77.01;97074.91;4951216;28;20458;-77
2023/11/15 00:52:04;;;;;;;0.60;0.40;;;10.70;80.50;;;9.97;77.01;97097.28;4951178;28;20446;-79
2023/11/15 00:54:31;;;;;;;1.07;0.43;;;10.70;80.50;;;9.93;76.98;97104.22;4949584;28;20460;-77
2023/11/15 00:56:58;;;;;;;0.50;0.50;;;10.60;80.40;;;9.97;77.41;97107.28;4940103;28;20458;-77
2023/11/15 00:59:36;;;;;;;0.90;0.50;;;10.60;80.60;;;9.71;77.34;97077.00;4949518;28;20454;-76
2023/11/15 01:02:05;;;;;;;2.07;0.73;;;10.60;80.80;;;9.90;77.14;97121.69;4944423;28;20555;-77
2023/11/15 01:04:32;;;;;;;0.57;0.40;;;10.60;80.60;;;9.90;77.25;97139.78;4949009;28;20458;-76
2023/11/15 01:06:59;;;;;;;0.63;0.40;;;10.60;80.50;;;9.89;76.78;97133.53;4963426;28;20487;-75
2023/11/15 01:09:28;;;;;;;0.83;0.40;;;10.60;80.60;;;9.39;77.50;97053.03;4949756;28;20936;-75
2023/11/15 01:11:56;;;;;;;1.13;0.53;;;10.60;80.60;;;9.88;77.95;97156.19;4950102;28;20568;-76
2023/11/15 01:14:23;;;;;;;1.50;0.53;;;10.50;80.90;;;9.80;78.54;97155.69;4949002;28;20457;-76
2023/11/15 01:16:51;;;;;;;1.67;0.50;;;10.50;80.90;;;9.85;78.85;97161.22;4950425;28;20461;-76
2023/11/15 01:19:19;;;;;;;1.83;0.50;;;10.50;81.20;;;9.80;77.85;97183.50;4947020;28;20458;-78
2023/11/15 01:21:46;;;;;;;0.90;0.50;;;10.40;80.80;;;9.87;78.17;97167.22;4942886;28;20954;-78
2023/11/15 01:24:16;;;;;;;5.20;0.50;;;10.50;81.00;;;9.74;78.20;97165.53;4952425;28;20872;-77
2023/11/15 01:26:48;;;;;;;1.07;0.60;;;10.50;81.00;;;9.77;77.69;97179.38;4950516;28;20454;-77
2023/11/15 01:29:16;;;;;;;0.80;0.40;;;10.40;80.80;;;9.69;78.20;97160.00;4949573;29;20939;-78
2023/11/15 01:31:43;;;;;;;1.13;0.60;;;10.40;81.00;;;9.06;78.64;97080.25;4945319;28;21184;-78
2023/11/15 01:34:10;;;;;;;2.27;0.43;;;10.40;81.00;;;9.62;79.26;97166.31;4948291;28;20462;-75
2023/11/15 01:36:37;;;;;;;0.63;0.53;;;10.30;81.50;;;9.59;81.03;97180.25;4946114;28;20451;-77
2023/11/15 01:39:06;;;;;;;0.70;0.40;;;10.30;82.00;;;9.56;80.56;97177.22;4950033;28;20458;-77
2023/11/15 01:41:33;;;;;;;1.07;0.50;;;10.30;81.90;;;9.53;81.73;97193.84;4945715;28;20463;-78
2023/11/15 01:44:02;;;;;;;2.30;0.57;;;10.20;82.10;;;9.40;82.18;97173.28;4946413;29;20467;-75
2023/11/15 01:46:29;;;;;;;0.50;0.40;;;10.20;82.80;;;9.47;82.57;97184.78;4949405;28;20451;-77
2023/11/15 01:48:58;;;;;;;0.80;0.60;;;10.20;82.90;;;9.37;82.43;97189.94;4949659;28;20467;-79
2023/11/15 01:51:25;;;;;;;1.50;0.40;;;10.10;82.40;;;9.47;82.72;97184.78;4956887;28;20477;-75
2023/11/15 01:53:53;;;;;;;1.37;0.57;;;10.10;82.70;;;9.43;82.53;97200.63;4966857;28;20459;-77
2023/11/15 01:56:20;;;;;;;1.23;0.57;;;10.10;82.80;;;9.51;81.38;97191.38;4970523;28;20467;-77
2023/11/15 01:58:47;;;;;;;0.80;0.40;;;10.20;82.50;;;9.51;80.77;97196.78;4977780;28;20470;-76
2023/11/15 02:01:17;;;;;;;0.43;0.37;;;10.20;82.10;;;9.45;80.67;97192.28;4959334;28;20458;-76
2023/11/15 02:03:45;;;;;;;0.50;0.40;;;10.20;81.90;;;9.07;79.87;97132.25;4960980;29;20465;-77
2023/11/15 02:06:14;;;;;;;0.90;0.60;;;10.20;82.00;;;9.59;80.18;97207.22;4956987;28;21065;-76
2023/11/15 02:08:42;;;;;;;0.73;0.73;;;10.20;81.90;;;9.51;79.29;97204.88;4963796;28;20456;-76
2023/11/15 02:11:09;;;;;;;3.50;0.60;;;10.30;81.30;;;9.58;79.90;97221.78;4959481;28;20498;-76
2023/11/15 02:13:36;;;;;;;0.87;0.40;;;10.30;81.60;;;9.57;80.12;97222.81;4954359;28;20481;-75
2023/11/15 02:16:06;;;;;;;1.50;0.53;;;10.30;81.60;;;9.40;79.65;97211.03;4964888;28;20484;-76
2023/11/15 02:18:35;;;;;;;0.80;0.60;;;10.30;81.60;;;9.54;80.27;97233.25;4961979;29;20569;-77
2023/11/15 02:21:03;;;;;;;1.47;0.43;;;10.30;81.70;;;9.50;80.25;97239.09;4949861;28;20504;-77
2023/11/15 02:23:30;;;;;;;3.27;0.70;;;10.30;81.50;;;9.51;80.44;97231.84;4948112;28;20458;-76
2023/11/15 02:25:59;;;;;;;0.50;0.40;;;10.30;81.70;;;9.50;79.85;97232.91;4947443;28;20454;-76
2023/11/15 02:28:26;;;;;;;1.87;0.83;;;10.30;81.50;;;9.51;78.61;97237.22;4943866;28;21076;-78
2023/11/15 02:30:54;;;;;;;1.13;0.30;;;10.30;80.90;;;9.58;77.84;97240.66;4940494;28;21131;-77
2023/11/15 02:33:21;;;;;;;0.90;0.60;;;10.40;80.40;;;9.72;78.09;97257.50;4946988;28;20454;-78
2023/11/15 02:35:48;;;;;;;1.20;0.30;;;10.40;80.70;;;9.66;77.47;97253.00;4946526;28;20469;-76
2023/11/15 02:38:16;;;;;;;4.53;0.97;;;10.40;80.40;;;9.68;77.09;97256.28;4947701;28;20470;-78
2023/11/15 02:40:43;;;;;;;1.73;0.50;;;10.40;80.30;;;9.87;76.85;97245.47;4953200;28;21012;-78
2023/11/15 02:43:12;;;;;;;1.23;0.40;;;10.40;80.30;;;9.27;75.97;97180.50;4946913;28;20875;-76
2023/11/15 02:45:40;;;;;;;2.10;0.77;;;10.50;79.90;;;9.86;76.36;97263.50;4949614;28;20498;-77
2023/11/15 02:48:08;;;;;;;1.10;0.50;;;10.50;80.00;;;9.84;75.98;97283.66;4947332;28;20465;-78
2023/11/15 02:50:35;;;;;;;1.77;0.60;;;10.50;79.90;;;9.82;75.97;97288.47;4948995;28;20479;-78
2023/11/15 02:53:03;;;;;;;1.90;0.60;;;10.50;79.90;;;9.82;76.52;97300.09;4948087;28;20450;-78
2023/11/15 02:55:30;;;;;;;1.70;0.60;;;10.50;79.90;;;9.88;75.68;97283.00;4957188;28;20450;-77
2023/11/15 02:57:57;;;;;;;1.33;0.50;;;10.50;79.70;;;9.90;75.78;97288.16;4970306;29;20478;-78
2023/11/15 03:00:29;;;;;;;0.60;0.50;;;10.50;79.90;;;9.85;76.52;97293.41;4965972;28;20459;-76
2023/11/15 03:02:56;;;;;;;2.93;0.70;;;10.50;80.00;;;9.81;76.87;97306.56;4949587;28;20445;-76
2023/11/15 03:05:23;;;;;;;1.53;0.60;;;10.50;80.10;;;9.88;76.80;97296.47;4945151;29;20442;-75
2023/11/15 03:07:50;;;;;;;2.40;0.47;;;10.50;80.40;;;9.86;76.05;97301.28;4943202;28;20464;-77
2023/11/15 03:10:17;;;;;;;1.90;0.60;;;10.50;80.10;;;9.89;76.44;97308.91;4946059;29;20460;-77
2023/11/15 03:12:45;;;;;;;3.63;0.70;;;10.50;79.90;;;9.89;76.20;97308.91;4945857;29;20469;-76
2023/11/15 03:15:14;;;;;;;1.50;0.70;;;10.50;80.10;;;9.47;76.89;97257.59;4944934;28;20456;-78
2023/11/15 03:17:42;;;;;;;2.67;0.70;;;10.50;80.20;;;9.80;77.19;97317.56;4946381;28;20457;-77
2023/11/15 03:20:11;;;;;;;1.27;0.40;;;10.40;80.10;;;9.81;76.33;97335.41;4946469;28;20457;-77
2023/11/15 03:22:38;;;;;;;3.03;0.50;;;10.40;80.00;;;9.76;77.06;97341.47;4942576;28;20478;-78
2023/11/15 03:25:06;;;;;;;1.17;0.60;;;10.50;80.00;;;9.70;77.03;97342.38;4937602;29;20455;-77
2023/11/15 03:27:34;;;;;;;1.10;0.60;;;10.40;80.20;;;9.67;78.12;97356.31;4947438;28;20857;-78
2023/11/15 03:30:02;;;;;;;1.00;0.60;;;10.40;80.30;;;9.64;78.35;97341.41;4944996;28;20537;-76
2023/11/15 03:32:30;;;;;;;2.87;0.90;;;10.40;80.70;;;9.62;77.52;97360.50;4946809;29;20569;-75
2023/11/15 03:34:59;;;;;;;1.20;0.73;;;10.30;80.40;;;9.66;78.98;97373.56;4945138;28;20475;-78
2023/11/15 03:37:26;;;;;;;0.60;0.40;;;10.30;80.70;;;9.69;78.50;97381.19;4944606;29;20450;-78
2023/11/15 03:39:54;;;;;;;0.77;0.50;;;10.30;81.00;;;9.66;79.19;97381.66;4948282;28;20493;-77
2023/11/15 03:42:21;;;;;;;6.27;0.70;;;10.30;81.20;;;9.58;79.71;97390.88;4949784;28;21533;-78
2023/11/15 03:44:48;;;;;;;1.40;0.50;;;10.20;81.10;;;9.49;79.38;97393.84;4950457;28;20954;-76
2023/11/15 03:47:15;;;;;;;3.03;0.70;;;10.20;81.20;;;9.46;80.61;97417.72;4953931;28;20452;-77
2023/11/15 03:49:42;;;;;;;1.57;0.70;;;10.10;81.50;;;9.50;80.53;97424.34;4952842;28;20451;-77
2023/11/15 03:52:13;;;;;;;1.30;0.63;;;10.10;81.70;;;9.41;81.06;97421.13;4950278;28;20551;-76
2023/11/15 03:54:40;;;;;;;2.20;0.50;;;10.10;82.00;;;9.37;81.69;97427.16;4949004;28;20514;-77
2023/11/15 03:57:10;;;;;;;1.43;0.53;;;10.00;82.30;;;9.29;81.97;97431.78;4944759;29;20459;-77
2023/11/15 03:59:38;;;;;;;1.57;0.60;;;9.90;83.40;;;9.21;82.51;97424.81;4951584;28;20470;-77
2023/11/15 04:02:06;;;;;;;5.30;1.60;;;9.90;83.50;;;9.27;83.16;97435.78;4950001;29;20457;-79
2023/11/15 04:04:34;;;;;;;3.67;1.40;;;9.80;83.80;;;9.21;82.37;97424.81;4947609;28;20480;-77
2023/11/15 04:07:03;;;;;;;0.73;0.60;;;9.90;83.80;;;9.27;82.92;97449.25;4950830;28;20454;-78
2023/11/15 04:09:32;;;;;;;2.53;0.93;;;9.90;83.90;;;9.24;82.60;97453.19;4952027;28;20490;-77
2023/11/15 04:12:00;;;;;;;2.20;1.00;;;9.90;83.90;;;9.28;81.98;97457.09;4951246;28;20473;-76
2023/11/15 04:14:29;;;;;;;3.10;0.93;;;9.90;83.80;;;9.20;82.27;97454.69;4942589;28;20465;-76
2023/11/15 04:16:57;;;;;;;2.70;0.60;;;9.90;83.90;;;9.28;82.46;97484.06;4953397;28;20453;-76
2023/11/15 04:19:24;;;;;;;1.10;0.60;;;9.90;83.80;;;9.31;82.25;97474.72;4950900;28;20934;-75
2023/11/15 04:21:52;;;;;;;1.33;0.50;;;9.90;83.80;;;9.20;82.74;97493.25;4949310;29;20457;-76
2023/11/15 04:24:19;;;;;;;2.23;0.80;;;9.90;83.90;;;9.18;83.27;97478.34;4950935;28;20459;-76
2023/11/15 04:26:48;;;;;;;9.83;2.10;;;9.90;84.30;;;9.07;83.59;97471.78;4949318;28;20525;-77
2023/11/15 04:29:15;;;;;;;2.50;0.70;;;9.80;84.40;;;9.21;84.56;97494.06;4946241;28;20521;-76
2023/11/15 04:31:42;;;;;;;3.73;0.83;;;9.80;84.60;;;8.92;85.33;97499.84;4942239;28;20470;-77
2023/11/15 04:34:10;;;;;;;4.20;1.00;;;9.60;84.80;;;8.86;85.72;97505.28;4949149;28;21011;-75
2023/11/15 04:36:37;;;;;;;2.30;0.80;;;9.50;85.20;;;8.81;86.67;97507.81;4965376;28;20461;-76
2023/11/15 04:39:06;;;;;;;2.50;0.77;;;9.50;85.60;;;8.81;86.59;97505.13;4960567;28;20456;-76
2023/11/15 04:41:33;;;;;;;5.70;1.20;;;9.40;85.70;;;8.77;87.22;97513.66;4949311;28;20533;-76
2023/11/15 04:44:04;;;;;;;3.90;1.10;;;9.50;85.80;;;8.90;85.73;97520.81;4949854;29;20553;-75
2023/11/15 04:46:34;;;;;;;3.20;1.40;;;9.60;85.50;;;8.84;85.91;97510.06;4949585;28;20464;-76
2023/11/15 04:49:01;;;;;;;2.73;0.80;;;9.60;85.60;;;8.95;85.21;97517.47;4943955;29;20522;-76
2023/11/15 04:51:28;;;;;;;1.47;1.07;;;9.60;85.50;;;8.90;85.86;97520.00;4942389;28;20488;-76
2023/11/15 04:53:55;;;;;;;7.10;1.37;;;9.60;85.40;;;9.00;85.92;97525.72;4950268;28;20442;-77
2023/11/15 04:56:22;;;;;;;1.50;0.93;;;9.60;85.30;;;8.97;85.22;97531.53;4942334;28;20463;-79
2023/11/15 04:58:52;;;;;;;4.63;1.20;;;9.60;85.50;;;9.01;85.39;97526.56;4949837;28;20458;-78
2023/11/15 05:01:21;;;;;;;1.70;0.70;;;9.70;85.60;;;9.00;85.39;97536.50;4949962;28;20480;-79
2023/11/15 05:03:48;;;;;;;1.33;0.70;;;9.70;85.40;;;9.05;85.53;97544.78;4950539;28;20504;-78
2023/11/15 05:06:15;;;;;;;2.93;0.80;;;9.70;85.40;;;9.09;85.03;97547.84;4946514;28;20482;-76
2023/11/15 05:08:43;;;;;;;2.20;1.03;;;9.70;85.20;;;9.09;84.52;97550.53;4957566;28;20459;-77
2023/11/15 05:11:10;;;;;;;1.73;0.97;;;9.70;85.20;;;9.19;83.46;97550.06;4946966;28;20488;-76
2023/11/15 05:13:37;;;;;;;4.37;0.93;;;9.80;84.90;;;9.10;84.11;97560.28;4950190;29;20816;-77
2023/11/15 05:16:07;;;;;;;2.40;0.87;;;9.80;84.80;;;9.21;83.10;97566.84;4941594;29;20529;-76
2023/11/15 05:18:36;;;;;;;3.50;1.10;;;9.80;84.40;;;9.17;82.80;97557.53;4961386;28;20482;-77
2023/11/15 05:21:04;;;;;;;3.17;1.03;;;9.80;84.40;;;9.31;82.13;97572.56;4946339;28;20462;-77
2023/11/15 05:23:31;;;;;;;3.90;1.07;;;9.90;84.30;;;9.20;82.32;97566.00;4949000;29;20462;-77
2023/11/15 05:25:59;;;;;;;1.23;0.93;;;9.90;84.00;;;9.14;82.10;97557.97;4949060;28;20467;-78
2023/11/15 05:28:27;;;;;;;5.70;1.07;;;9.80;84.00;;;9.09;81.90;97564.00;4941401;28;20467;-78
2023/11/15 05:30:55;;;;;;;3.27;1.23;;;9.80;84.00;;;9.17;82.05;97557.53;4949041;29;20545;-77
2023/11/15 05:33:22;;;;;;;3.67;1.70;;;9.80;84.10;;;9.24;82.00;97565.56;4951573;28;20501;-76
2023/11/15 05:35:51;;;;;;;2.20;0.77;;;9.80;84.10;;;9.14;82.35;97574.13;4942782;28;20541;-77
2023/11/15 05:38:19;;;;;;;2.23;0.77;;;9.70;84.00;;;9.03;82.29;97572.97;4942134;28;20450;-74
2023/11/15 05:40:47;;;;;;;2.17;1.10;;;9.70;84.00;;;8.90;82.41;97580.06;4945442;28;20560;-75
2023/11/15 05:43:14;;;;;;;3.03;1.20;;;9.60;84.00;;;8.80;83.29;97574.34;4958689;28;20548;-74
2023/11/15 05:45:41;;;;;;;1.60;0.70;;;9.50;84.10;;;8.66;83.91;97584.34;4947639;28;20459;-76
2023/11/15 05:48:08;;;;;;;2.33;0.87;;;9.40;84.30;;;8.57;84.54;97591.84;4952277;28;20469;-76
2023/11/15 05:50:35;;;;;;;3.13;0.90;;;9.30;84.50;;;8.57;84.80;97588.31;4949895;28;20449;-75
2023/11/15 05:53:05;;;;;;;2.33;0.77;;;9.20;84.70;;;8.21;85.31;97593.16;4943267;28;20531;-75
2023/11/15 05:55:32;;;;;;;3.17;1.20;;;9.10;84.80;;;8.20;86.23;97586.94;4940342;28;20465;-74
2023/11/15 05:57:59;;;;;;;2.13;1.10;;;9.00;84.90;;;8.21;86.31;97587.78;4943607;28;20459;-75
2023/11/15 06:00:27;;;;;;;1.43;1.10;;;9.00;85.00;;;8.19;86.03;97593.38;4947560;28;21022;-77
2023/11/15 06:02:54;;;;;;;3.00;1.17;;;9.00;85.00;;;8.08;86.20;97578.69;4954881;28;20956;-82
2023/11/15 06:05:22;;;;;;;8.43;1.70;;;9.00;84.70;;;8.16;85.39;97585.72;4948425;28;20446;-76
2023/11/15 06:07:50;;;;;;;2.60;1.10;;;8.90;84.60;;;8.15;85.66;97588.59;4945922;28;20965;-76
2023/11/15 06:10:18;;;;;;;2.90;1.30;;;8.90;84.70;;;8.16;86.05;97591.09;4948951;28;21026;-74
2023/11/15 06:12:46;;;;;;;4.37;0.87;;;9.00;84.80;;;8.27;85.36;97605.75;4942077;28;21412;-71
2023/11/15 06:15:14;;;;;;;1.60;0.93;;;9.10;84.60;;;8.29;84.57;97603.69;4947635;28;20499;-72
2023/11/15 06:17:42;;;;;;;1.67;0.73;;;9.10;84.00;;;8.34;84.57;97616.53;4946512;28;20446;-72
2023/11/15 06:20:11;;;;;;;1.33;0.90;;;9.10;84.20;;;8.30;83.85;97621.50;4947836;29;21144;-81
2023/11/15 06:22:38;;;;;;;2.70;0.90;;;9.10;84.00;;;8.27;85.05;97623.78;4942133;28;20457;-76
2023/11/15 06:25:07;;;;;;;5.20;1.20;;;9.10;84.40;;;8.25;84.64;97628.53;4947082;28;20771;-77
2023/11/15 06:27:37;;;;;;;1.53;1.00;;;9.00;84.10;;;8.32;84.58;97621.28;4948701;28;20460;-74
2023/11/15 06:30:09;;;;;;;1.70;1.20;;;9.10;84.40;;;8.41;83.93;97630.78;4948421;28;20459;-74
2023/11/15 06:32:37;;;;;;;1.73;0.80;;;9.10;83.90;;;8.47;82.67;97629.09;4944943;28;20827;-74
2023/11/15 06:35:04;;;;;;;1.00;0.50;;;9.20;83.70;;;8.52;82.88;97637.44;4955252;28;20533;-72
2023/11/15 06:37:34;;;;;;;1.50;0.77;;;9.30;83.60;;;8.58;83.35;97638.44;4960777;28;20970;-72
2023/11/15 06:40:06;;;;;;;5.03;0.93;;;9.40;83.90;;;8.52;83.17;97621.28;4947419;28;20501;-72
2023/11/15 06:42:34;;;;;;;0.60;0.50;;;9.40;83.80;;;8.47;82.89;97651.50;4945293;28;20594;-72
2023/11/15 06:45:04;;;;;;;2.17;0.87;;;9.30;83.80;;;8.39;83.51;97657.09;4955942;28;20462;-71
2023/11/15 06:47:31;;;;;;;1.50;0.90;;;9.20;83.80;;;8.39;84.25;97661.66;4959074;28;20474;-72
2023/11/15 06:49:58;;;;;;;4.83;1.10;;;9.20;84.10;;;8.26;85.32;97666.03;4966006;28;20514;-72
2023/11/15 06:52:26;;;;;;;1.83;0.93;;;9.20;84.10;;;8.22;84.33;97649.44;4950913;28;20470;-73
2023/11/15 06:54:53;;;;;;;0.70;0.67;;;9.20;84.10;;;8.23;84.63;97667.25;4947288;28;20552;-71
2023/11/15 06:57:20;;;;;;;1.80;1.00;;;9.10;84.20;;;8.06;86.05;97660.66;4944434;28;20455;-72
2023/11/15 06:59:47;;;;;;;4.33;1.00;;;9.10;84.30;;;7.99;86.76;97668.72;4963117;28;20458;-72
2023/11/15 07:02:16;;;;;;;0.90;0.80;;;9.00;84.40;;;7.99;87.28;97666.03;4944391;28;20470;-73
2023/11/15 07:04:43;;;;;;;2.70;1.27;;;9.00;84.50;;;7.98;86.98;97677.84;4942184;28;20454;-73
2023/11/15 07:07:11;;;;;;;2.43;1.07;;;9.00;84.50;;;7.97;86.78;97678.88;4942260;28;20526;-73
2023/11/15 07:09:39;;;;;;;0.80;0.80;;;9.00;84.30;;;8.11;86.71;97674.31;4945334;28;20458;-74
2023/11/15 07:12:09;;;;;;;2.10;1.00;;;9.10;84.50;;;8.18;85.89;97675.13;4944014;28;20596;-72
2023/11/15 07:14:36;;;;;;;1.90;0.90;;;9.10;84.50;;;8.25;85.65;97685.06;4942246;28;20469;-71
2023/11/15 07:17:03;;;;;;;2.00;1.10;;;9.10;84.60;;;8.25;86.31;97679.69;4945998;28;20524;-70
2023/11/15 07:19:32;;;;;;;4.03;1.10;;;9.10;84.70;;;8.27;86.05;97689.19;4962155;28;20557;-75
2023/11/15 07:22:00;;;;;;;2.27;1.13;;;9.10;84.60;;;8.32;85.02;97691.28;4941107;28;20467;-69
2023/11/15 07:24:27;;;;;;;1.87;0.90;;;9.10;84.60;;;8.35;85.48;97690.84;4941605;28;20457;-70
2023/11/15 07:26:54;;;;;;;4.30;1.50;;;9.20;85.10;;;7.85;85.40;97621.34;4946723;28;20477;-69
2023/11/15 07:29:22;;;;;;;0.93;0.80;;;9.20;84.60;;;8.43;85.61;97698.72;4949119;28;20458;-71
2023/11/15 07:31:51;;;;;;;3.10;1.20;;;9.20;84.80;;;8.46;85.54;97703.69;4949781;28;21183;-70
2023/11/15 07:34:21;;;;;;;6.20;1.20;;;9.20;84.70;;;8.47;85.74;97707.19;4945205;28;20447;-71
2023/11/15 07:36:49;;;;;;;4.97;1.57;;;9.20;84.70;;;8.50;85.28;97707.63;4947842;28;20467;-70
2023/11/15 07:39:18;;;;;;;4.33;1.20;;;9.30;84.80;;;8.57;85.18;97731.03;4960492;28;20538;-70
2023/11/15 07:41:46;;;;;;;1.53;1.27;;;9.30;84.80;;;8.63;84.35;97720.25;4954564;28;20454;-70
2023/11/15 07:44:15;;;;;;;4.10;1.63;;;9.40;84.60;;;8.63;83.96;97719.44;4949070;28;20462;-71
2023/11/15 07:46:43;;;;;;;1.90;1.00;;;9.40;84.40;;;8.72;84.49;97712.78;4954575;28;21251;-69
2023/11/15 07:49:12;;;;;;;2.70;1.30;;;9.50;84.60;;;8.81;83.52;97720.63;4948993;28;20490;-70
2023/11/15 07:51:39;;;;;;;2.93;0.83;;;9.50;84.50;;;8.73;83.50;97722.53;4949018;28;20625;-70
2023/11/15 07:54:08;;;;;;;5.97;1.40;;;9.60;84.70;;;8.96;83.61;97734.66;4950269;28;20769;-70
2023/11/15 07:56:35;;;;;;;6.30;1.50;;;9.70;84.10;;;9.00;82.86;97730.50;4943216;28;20454;-72
2023/11/15 07:59:04;;;;;;;2.27;1.30;;;9.80;84.10;;;8.93;82.70;97740.50;4950031;28;20453;-71
2023/11/15 08:01:31;;;;;;;5.03;1.20;;;9.80;83.60;;;8.91;82.90;97742.56;4945301;28;20662;-73
2023/11/15 08:03:58;;;;;;;3.33;1.77;;;9.70;83.80;;;8.97;82.23;97747.09;4946191;28;20472;-72
2023/11/15 08:06:26;;;;;;;4.00;1.57;;;9.70;83.80;;;9.01;81.95;97753.72;4945949;28;20499;-72
2023/11/15 08:08:54;;;;;;;3.73;1.20;;;9.80;83.80;;;9.09;81.71;97755.34;4950073;28;20464;-71
2023/11/15 08:11:24;;;;;;;5.07;1.67;;;9.80;83.70;;;9.29;81.35;97752.59;4964150;28;20474;-72
2023/11/15 08:13:53;;;;;;;4.10;1.60;;;10.00;82.50;;;9.42;80.27;97758.97;4938814;28;20478;-71
2023/11/15 08:16:22;;;;;;;2.57;1.33;;;10.10;82.10;;;9.67;78.76;97767.16;4944593;28;20540;-71
2023/11/15 08:18:50;;;;;;;5.80;1.57;;;10.30;81.70;;;9.87;77.84;97760.81;4946121;28;20462;-73
2023/11/15 08:21:17;;;;;;;3.97;1.83;;;10.50;81.40;;;9.99;77.43;97769.03;4945336;28;20450;-71
2023/11/15 08:23:44;;;;;;;2.10;1.20;;;10.60;81.30;;;9.99;76.78;97779.84;4946427;28;20460;-72
2023/11/15 08:26:12;;;;;;;7.30;1.57;;;10.60;81.10;;;10.04;76.99;97771.91;4942102;28;21340;-72
2023/11/15 08:28:40;;;;;;;3.63;1.50;;;10.70;80.90;;;9.85;76.30;97784.47;4952400;28;20452;-71
2023/11/15 08:31:08;;;;;;;3.40;1.50;;;10.70;80.20;;;9.96;76.52;97785.69;4947060;28;20500;-71
2023/11/15 08:33:36;;;;;;;2.83;1.33;;;10.60;80.40;;;9.84;76.68;97783.66;4947735;28;20485;-73
2023/11/15 08:36:04;;;;;;;2.53;1.03;;;10.70;80.20;;;10.00;76.97;97784.19;4948399;28;20450;-71
2023/11/15 08:38:31;;;;;;;4.10;1.00;;;10.70;80.20;;;10.15;75.90;97800.06;4948882;28;20490;-71
2023/11/15 08:40:59;;;;;;;4.97;1.63;;;10.80;80.00;;;10.31;74.90;97798.72;4948550;28;20459;-71
2023/11/15 08:43:26;;;;;;;2.20;1.20;;;11.00;79.50;;;10.18;74.35;97810.47;4955996;28;20908;-73
2023/11/15 08:45:57;;;;;;;7.23;1.50;;;11.00;79.10;;;10.26;74.79;97793.16;4951442;28;21007;-71
2023/11/15 08:48:27;;;;;;;4.70;1.20;;;11.00;79.30;;;10.11;74.16;97793.47;4948578;28;20458;-70
2023/11/15 08:50:54;;;;;;;5.03;1.10;;;11.00;78.70;;;10.01;74.63;97794.78;4947826;28;20451;-71
2023/11/15 08:53:25;;;;;;;3.20;1.30;;;10.90;78.90;;;10.05;75.24;97801.41;4946734;28;20908;-74
2023/11/15 08:55:52;;;;;;;8.53;1.77;;;10.80;79.00;;;9.99;74.66;97793.34;4939851;28;20464;-74
2023/11/15 08:58:19;;;;;;;6.73;1.17;;;10.80;78.80;;;10.17;74.87;97798.00;4949111;28;20453;-78
2023/11/15 09:00:49;;;;;;;1.17;0.90;;;10.90;79.00;;;10.29;74.08;97798.13;4949788;28;20801;-76
2023/11/15 09:03:18;;;;;;;4.50;1.60;;;11.00;78.80;;;10.31;73.94;97782.53;4947953;28;20463;-76
2023/11/15 09:05:47;;;;;;;4.03;1.20;;;11.10;78.70;;;10.27;73.88;97808.31;4945125;28;20960;-74
2023/11/15 09:08:16;;;;;;;3.97;1.10;;;11.00;78.30;;;10.31;74.01;97804.13;4948211;28;20947;-79
2023/11/15 09:10:43;;;;;;;4.53;1.40;;;11.10;78.50;;;10.35;73.83;97805.34;4945287;28;20564;-71
2023/11/15 09:13:13;;;;;;;5.30;1.60;;;11.10;78.50;;;10.38;74.01;97810.28;4944321;28;20492;-77
2023/11/15 09:15:42;;;;;;;2.70;1.50;;;11.10;78.60;;;10.39;74.19;97803.88;4947942;28;20536;-74
2023/11/15 09:18:10;;;;;;;3.20;0.90;;;11.10;78.50;;;10.36;74.08;97812.38;4962503;28;20472;-77
2023/11/15 09:20:41;;;;;;;3.73;1.77;;;11.10;78.30;;;10.19;74.57;97818.31;4960135;28;20460;-77
2023/11/15 09:23:08;;;;;;;3.50;1.47;;;11.00;78.40;;;10.25;74.40;97810.41;4945848;28;20457;-77
2023/11/15 09:25:35;;;;;;;7.60;1.30;;;11.00;78.60;;;10.28;73.87;97808.09;4957631;28;20457;-74
2023/11/15 09:28:03;;;;;;;2.27;1.10;;;11.00;78.30;;;10.37;73.26;97813.22;4939928;28;20474;-74
2023/11/15 09:30:31;;;;;;;3.87;1.73;;;11.10;77.90;;;10.51;73.30;97804.00;4938044;28;20454;-73
2023/11/15 09:33:03;;;;;;;1.67;1.10;;;11.20;78.20;;;10.34;72.56;97787.47;4941478;28;21122;-78
2023/11/15 09:35:31;;;;;;;3.63;1.20;;;11.20;77.20;;;10.42;72.02;97806.16;4947948;28;21210;-77
2023/11/15 09:37:59;;;;;;;2.97;1.20;;;11.20;76.90;;;10.60;72.36;97815.38;4945668;28;20498;-76
2023/11/15 09:40:28;;;;;;;1.67;0.70;;;11.30;77.40;;;10.60;71.48;97820.78;4945770;28;20468;-73
2023/11/15 09:42:59;;;;;;;3.17;1.17;;;11.30;77.00;;;10.72;70.97;97816.31;4943330;28;20448;-76
2023/11/15 09:45:27;;;;;;;2.13;1.20;;;11.40;76.90;;;10.98;70.47;97806.28;4945852;28;20474;-75
2023/11/15 09:47:58;;;;;;;3.47;1.37;;;11.50;76.90;;;11.04;70.29;97813.50;4943664;28;20463;-75
2023/11/15 09:50:27;;;;;;;3.20;0.90;;;11.60;76.90;;;11.03;69.24;97819.97;4950671;28;20466;-75
2023/11/15 09:52:56;;;;;;;4.27;1.43;;;11.70;76.10;;;11.23;68.81;97827.03;4949823;28;20477;-77
2023/11/15 09:55:26;;;;;;;3.20;1.40;;;11.90;75.90;;;11.05;68.88;97820.56;4941075;28;20983;-76
2023/11/15 09:57:55;;;;;;;5.40;1.33;;;11.80;75.50;;;11.02;68.98;97825.59;4957729;28;20863;-75
2023/11/15 10:00:29;;;;;;;3.00;1.10;;;11.80;75.40;;;10.91;68.84;97830.66;4964321;28;20481;-75
2023/11/15 10:02:57;;;;;;;2.10;1.07;;;11.70;75.00;;;10.87;67.86;97812.44;4948603;28;20460;-78
2023/11/15 10:05:27;;;;;;;2.07;0.90;;;11.70;74.60;;;10.89;68.36;97815.75;4948004;28;20459;-77
2023/11/15 10:08:10;;;;;;;2.80;0.90;;;11.60;74.60;;;10.86;67.24;97821.59;4952672;28;20474;-73
2023/11/15 10:10:40;;;;;;;2.23;0.93;;;11.60;74.10;;;10.81;67.49;97824.13;4963271;28;20472;-74
2023/11/15 10:13:14;;;;;;;5.17;1.33;;;11.60;74.00;;;10.82;68.19;97844.69;4960754;28;20921;-76
2023/11/15 10:15:43;;;;;;;1.93;0.60;;;11.50;74.30;;;10.73;68.38;97849.53;4953242;28;20456;-79
2023/11/15 10:18:12;;;;;;;1.00;0.70;;;11.50;74.00;;;10.68;67.87;97836.69;4946416;28;21258;-79
2023/11/15 10:20:41;;;;;;;2.17;0.80;;;11.50;74.00;;;10.79;67.57;97831.63;4945951;28;21123;-77
2023/11/15 10:23:10;;;;;;;1.43;1.03;;;11.50;73.70;;;10.88;68.21;97854.63;4939430;28;20597;-74
2023/11/15 10:25:50;;;;;;;2.30;1.23;;;11.60;74.00;;;10.98;68.12;97837.91;4946944;28;20549;-75
2023/11/15 10:28:21;;;;;;;2.97;0.73;;;11.70;74.20;;;10.85;67.31;97842.38;4956132;28;20452;-71
2023/11/15 10:31:02;;;;;;;2.70;1.13;;;11.70;73.60;;;10.69;67.88;97843.78;4973580;28;20523;-70